createdAt,value
2023-05-25T00:00:53.431Z,7.32
2023-05-25T00:04:40.370Z,6.15
2023-05-25T00:08:41.235Z,6.03
2023-05-25T00:12:40.369Z,5.97
2023-05-25T00:16:41.088Z,7.82
2023-05-25T00:20:40.620Z,6.82
2023-05-25T00:24:40.521Z,6.82
2023-05-25T00:28:40.598Z,6.37
2023-05-25T00:32:40.615Z,6.45
2023-05-25T00:36:40.408Z,6.3
2023-05-25T00:40:40.477Z,8.5
2023-05-25T00:44:40.461Z,7.07
2023-05-25T00:48:40.604Z,8.1
2023-05-25T00:52:40.422Z,7.18
2023-05-25T00:56:40.549Z,7.07
2023-05-25T01:00:40.346Z,6.9
2023-05-25T01:04:40.643Z,6.65
2023-05-25T01:08:40.405Z,7.72
2023-05-25T01:12:40.475Z,6.55
2023-05-25T01:16:40.645Z,6.15
2023-05-25T01:20:40.515Z,6.2
2023-05-25T01:24:40.373Z,6.8
2023-05-25T01:28:40.388Z,6.65
2023-05-25T01:32:40.578Z,6.37
2023-05-25T01:36:40.549Z,6.55
2023-05-25T01:40:40.603Z,4.95
2023-05-25T01:44:40.498Z,6.45
2023-05-25T01:48:40.589Z,6.07
2023-05-25T01:52:40.661Z,5.72
2023-05-25T01:56:40.565Z,6.6
2023-05-25T02:00:40.471Z,6.35
2023-05-25T02:04:40.477Z,5.7
2023-05-25T02:08:40.298Z,5.3
2023-05-25T02:12:40.978Z,6.12
2023-05-25T02:16:40.492Z,6.1
2023-05-25T02:20:40.919Z,6.45
2023-05-25T02:24:40.480Z,6.12
2023-05-25T02:28:40.435Z,5.57
2023-05-25T02:32:41.043Z,6.07
2023-05-25T02:36:40.579Z,6.32
2023-05-25T02:40:40.525Z,6.28
2023-05-25T02:44:40.367Z,5.95
2023-05-25T02:48:39.742Z,7.12
2023-05-25T02:52:40.448Z,7.37
2023-05-25T02:56:40.559Z,6.6
2023-05-25T03:00:40.421Z,7.28
2023-05-25T03:04:40.746Z,6.62
2023-05-25T03:08:40.679Z,6.85
2023-05-25T03:12:40.383Z,6.28
2023-05-25T03:16:40.278Z,6.1
2023-05-25T03:20:40.471Z,6.93
2023-05-25T03:24:40.832Z,6.15
2023-05-25T03:28:40.889Z,5.95
2023-05-25T03:32:40.521Z,7.12
2023-05-25T03:36:40.338Z,6.2
2023-05-25T03:40:39.749Z,6.3
2023-05-25T03:44:41.318Z,7.25
2023-05-25T03:48:40.910Z,8.13
2023-05-25T03:52:40.423Z,5.15
2023-05-25T03:56:40.465Z,5.28
2023-05-25T04:00:40.585Z,5.7
2023-05-25T04:04:40.325Z,5.22
2023-05-25T04:08:41.076Z,4.2
2023-05-25T04:12:40.458Z,3.7
2023-05-25T04:16:40.445Z,3.78
2023-05-25T04:20:40.683Z,4.37
2023-05-25T04:24:40.530Z,3.53
2023-05-25T04:28:40.518Z,3.9
2023-05-25T04:32:40.267Z,2.8
2023-05-25T04:36:40.599Z,3.5
2023-05-25T04:40:40.428Z,3.7
2023-05-25T04:44:40.498Z,3.25
2023-05-25T04:48:41.258Z,3.7
2023-05-25T04:52:40.673Z,4.28
2023-05-25T04:56:40.602Z,3.58
2023-05-25T05:00:40.514Z,3.8
2023-05-25T05:04:41.023Z,3.35
2023-05-25T05:08:40.378Z,4.03
2023-05-25T05:12:40.899Z,3.78
2023-05-25T05:16:40.598Z,3.62
2023-05-25T05:20:40.679Z,3.9
2023-05-25T05:24:40.812Z,3.2
2023-05-25T05:28:41.194Z,3.03
2023-05-25T05:32:41.181Z,3.33
2023-05-25T05:36:55.942Z,3.65
2023-05-25T05:40:40.626Z,3.75
2023-05-25T05:44:40.253Z,5.18
2023-05-25T05:48:40.581Z,4.07
2023-05-25T05:52:40.829Z,3.33
2023-05-25T05:56:40.654Z,3.87
2023-05-25T06:00:40.637Z,3.8
2023-05-25T06:04:40.397Z,4.05
2023-05-25T06:08:40.965Z,3.6
2023-05-25T06:12:40.484Z,4.3
2023-05-25T06:16:40.466Z,3.8
2023-05-25T06:20:40.633Z,3.05
2023-05-25T06:24:39.912Z,4.3
2023-05-25T06:28:40.645Z,5.1
2023-05-25T06:32:40.629Z,4.62
2023-05-25T06:36:41.766Z,5.03
2023-05-25T06:40:41.277Z,3.9
2023-05-25T06:44:40.662Z,4.37
2023-05-25T06:48:40.389Z,4.37
2023-05-25T06:52:41.121Z,4.43
2023-05-25T06:56:40.189Z,3.97
2023-05-25T07:00:41.156Z,4.47
2023-05-25T07:04:40.449Z,3.92
2023-05-25T07:08:40.550Z,5.25
2023-05-25T07:12:40.526Z,4.35
2023-05-25T07:16:40.657Z,4.28
2023-05-25T07:20:40.829Z,4.6
2023-05-25T07:24:40.305Z,4.28
2023-05-25T07:28:40.567Z,4.78
2023-05-25T07:32:40.574Z,3.97
2023-05-25T07:36:40.222Z,3.6
2023-05-25T07:40:40.586Z,4.07
2023-05-25T07:44:40.895Z,4.12
2023-05-25T07:48:39.697Z,4
2023-05-25T07:52:40.445Z,3.33
2023-05-25T07:56:40.401Z,3.7
2023-05-25T08:00:40.685Z,3.47
2023-05-25T08:04:40.749Z,4.03
2023-05-25T08:08:40.568Z,2.6
2023-05-25T08:12:48.757Z,4.55
2023-05-25T08:16:41.318Z,3.28
2023-05-25T08:20:40.670Z,3.72
2023-05-25T08:24:40.942Z,4.07
2023-05-25T08:28:40.381Z,3.62
2023-05-25T08:32:40.784Z,3.28
2023-05-25T08:36:40.378Z,3.4
2023-05-25T08:40:40.541Z,3.05
2023-05-25T08:44:40.463Z,2.87
2023-05-25T08:48:42.658Z,2.78
2023-05-25T08:52:40.251Z,3.35
2023-05-25T08:56:40.397Z,3.17
2023-05-25T09:00:40.549Z,2.83
2023-05-25T09:04:40.627Z,2.75
2023-05-25T09:08:40.431Z,2.8
2023-05-25T09:12:40.507Z,3.25
2023-05-25T09:16:40.582Z,3.08
2023-05-25T09:20:41.456Z,2.85
2023-05-25T09:24:40.430Z,3.1
2023-05-25T09:28:40.587Z,2.42
2023-05-25T09:32:40.555Z,2.87
2023-05-25T09:36:40.633Z,2.45
2023-05-25T09:40:40.690Z,2.67
2023-05-25T09:44:40.633Z,2.83
2023-05-25T09:48:39.476Z,2.45
2023-05-25T09:52:40.586Z,3.22
2023-05-25T09:56:40.603Z,3.03
2023-05-25T10:00:39.636Z,2.62
2023-05-25T10:04:41.140Z,2.5
2023-05-25T10:08:40.293Z,3.12
2023-05-25T10:12:41.039Z,2.5
2023-05-25T10:16:40.734Z,2.9
2023-05-25T10:20:40.586Z,2.65
2023-05-25T10:24:40.547Z,2.8
2023-05-25T10:28:40.383Z,2.65
2023-05-25T10:32:40.339Z,3
2023-05-25T10:36:40.506Z,2.45
2023-05-25T10:40:40.555Z,2.7
2023-05-25T10:44:40.443Z,3.08
2023-05-25T10:48:39.644Z,3.65
2023-05-25T10:52:41.101Z,3.05
2023-05-25T10:56:40.531Z,3.65
2023-05-25T11:00:40.821Z,3.95
2023-05-25T11:04:40.699Z,3.03
2023-05-25T11:08:40.774Z,3.12
2023-05-25T11:12:39.896Z,3.05
2023-05-25T11:16:40.568Z,2.87
2023-05-25T11:20:40.743Z,2.87
2023-05-25T11:24:39.972Z,2.78
2023-05-25T11:28:41.294Z,2.5
2023-05-25T11:32:40.896Z,2.58
2023-05-25T11:36:40.267Z,2.67
2023-05-25T11:40:40.716Z,3.17
2023-05-25T11:44:41.260Z,2.8
2023-05-25T11:48:41.137Z,2.8
2023-05-25T11:52:40.456Z,2.47
2023-05-25T11:56:41.237Z,3.1
2023-05-25T12:00:40.476Z,2.95
2023-05-25T12:04:40.954Z,2.45
2023-05-25T12:08:40.453Z,2.75
2023-05-25T12:12:40.353Z,3.3
2023-05-25T12:16:40.466Z,2.4
2023-05-25T12:20:40.767Z,2.97
2023-05-25T12:24:40.479Z,3.08
2023-05-25T12:28:39.664Z,2.22
2023-05-25T12:32:40.879Z,2.58
2023-05-25T12:36:41.269Z,2.83
2023-05-25T12:40:40.414Z,2.35
2023-05-25T12:44:40.597Z,2.72
2023-05-25T12:48:40.402Z,2.17
2023-05-25T12:52:40.458Z,2.72
2023-05-25T12:56:39.547Z,2.67
2023-05-25T13:00:41.096Z,2.55
2023-05-25T13:04:40.428Z,2.53
2023-05-25T13:08:40.723Z,2.28
2023-05-25T13:12:40.477Z,2.35
2023-05-25T13:16:40.594Z,2.3
2023-05-25T13:20:41.120Z,2.97
2023-05-25T13:24:40.850Z,2.65
2023-05-25T13:28:40.265Z,2.28
2023-05-25T13:32:41.055Z,2.45
2023-05-25T13:36:40.494Z,3.37
2023-05-25T13:40:40.628Z,2.1
2023-05-25T13:44:40.475Z,2.35
2023-05-25T13:48:40.793Z,3.47
2023-05-25T13:52:40.487Z,2.7
2023-05-25T13:56:39.524Z,2.7
2023-05-25T14:00:40.590Z,2.17
2023-05-25T14:04:40.244Z,2.5
2023-05-25T14:08:40.036Z,2.08
2023-05-25T14:12:40.430Z,2.8
2023-05-25T14:16:40.516Z,3.15
2023-05-25T14:20:41.226Z,3.22
2023-05-25T14:24:40.920Z,3.08
2023-05-25T14:28:39.721Z,2.75
2023-05-25T14:32:41.174Z,3.1
2023-05-25T14:36:40.362Z,3.28
2023-05-25T14:40:40.899Z,2.75
2023-05-25T14:44:40.930Z,3.08
2023-05-25T14:48:40.520Z,3.5
2023-05-25T14:52:40.704Z,3.85
2023-05-25T14:56:40.321Z,2.87
2023-05-25T15:00:40.553Z,3.1
2023-05-25T15:04:40.186Z,3
2023-05-25T15:08:40.410Z,3.53
2023-05-25T15:12:40.888Z,3.03
2023-05-25T15:16:40.919Z,3.95
2023-05-25T15:20:40.887Z,3.08
2023-05-25T15:24:40.939Z,3.4
2023-05-25T15:28:40.761Z,3.67
2023-05-25T15:32:41.121Z,3.7
2023-05-25T15:36:40.496Z,3
2023-05-25T15:40:40.644Z,3.05
2023-05-25T15:44:40.466Z,3.6
2023-05-25T15:48:39.818Z,4.07
2023-05-25T15:52:41.253Z,3.33
2023-05-25T15:56:41.187Z,2.75
2023-05-25T16:00:40.492Z,3.3
2023-05-25T16:04:40.966Z,3.53
2023-05-25T16:08:40.980Z,3.15
2023-05-25T16:12:40.868Z,2.3
2023-05-25T16:16:40.639Z,2.9
2023-05-25T16:20:40.843Z,3.1
2023-05-25T16:24:40.911Z,3.15
2023-05-25T16:28:40.531Z,3.6
2023-05-25T16:32:40.549Z,2.22
2023-05-25T16:36:40.390Z,3.3
2023-05-25T16:40:40.607Z,3.3
2023-05-25T16:44:40.458Z,2.87
2023-05-25T16:48:40.954Z,3.25
2023-05-25T16:52:40.727Z,4.22
2023-05-25T16:56:41.324Z,3.2
2023-05-25T17:00:40.383Z,3
2023-05-25T17:04:40.593Z,3.4
2023-05-25T17:08:40.996Z,3.25
2023-05-25T17:12:40.842Z,3.53
2023-05-25T17:16:40.085Z,3.5
2023-05-25T17:20:40.631Z,3.15
2023-05-25T17:24:40.379Z,3.5
2023-05-25T17:28:40.614Z,3.37
2023-05-25T17:32:40.520Z,3.7
2023-05-25T17:36:40.538Z,3
2023-05-25T17:40:40.990Z,3.33
2023-05-25T17:44:40.426Z,3.85
2023-05-25T17:48:40.668Z,3.58
2023-05-25T17:52:40.514Z,3.95
2023-05-25T17:56:40.336Z,4.18
2023-05-25T18:00:40.783Z,4.68
2023-05-25T18:04:40.802Z,4.37
2023-05-25T18:08:40.481Z,3.47
2023-05-25T18:12:40.494Z,3.08
2023-05-25T18:16:40.488Z,3.28
2023-05-25T18:20:40.589Z,2.97
2023-05-25T18:24:41.050Z,3.85
2023-05-25T18:28:39.513Z,3.17
2023-05-25T18:32:40.519Z,3.47
2023-05-25T18:36:40.511Z,4.45
2023-05-25T18:40:40.469Z,4.47
2023-05-25T18:44:40.537Z,3.4
2023-05-25T18:48:40.573Z,4.2
2023-05-25T18:52:40.542Z,3.87
2023-05-25T18:56:40.538Z,4.15
2023-05-25T19:00:41.097Z,3.95
2023-05-25T19:04:40.842Z,4.12
2023-05-25T19:08:39.747Z,3.83
2023-05-25T19:12:41.113Z,3.92
2023-05-25T19:16:40.854Z,4.45
2023-05-25T19:20:41.006Z,3.9
2023-05-25T19:24:42.753Z,4.2
2023-05-25T19:28:40.300Z,3.72
2023-05-25T19:32:40.612Z,4.1
2023-05-25T19:36:40.577Z,4.87
2023-05-25T19:40:40.556Z,3.6
2023-05-25T19:44:40.287Z,4.8
2023-05-25T19:48:40.793Z,4.9
2023-05-25T19:52:40.543Z,4.28
2023-05-25T19:56:42.925Z,4.55
2023-05-25T20:00:40.743Z,4.2
2023-05-25T20:04:41.170Z,5.72
2023-05-25T20:08:40.821Z,4.5
2023-05-25T20:12:40.725Z,4.9
2023-05-25T20:16:40.494Z,4.9
2023-05-25T20:20:40.939Z,5.28
2023-05-25T20:24:40.496Z,4.45
2023-05-25T20:28:40.449Z,4.45
2023-05-25T20:32:40.518Z,4.43
2023-05-25T20:36:40.488Z,4.82
2023-05-25T20:40:40.455Z,4.35
2023-05-25T20:44:40.471Z,4.32
2023-05-25T20:48:40.448Z,3.83
2023-05-25T20:52:40.813Z,3.53
2023-05-25T20:56:40.723Z,4.47
2023-05-25T21:00:40.909Z,3.87
2023-05-25T21:04:40.591Z,3.58
2023-05-25T21:08:40.784Z,4.37
2023-05-25T21:12:40.542Z,4.75
2023-05-25T21:16:41.074Z,4.15
2023-05-25T21:20:41.086Z,4.87
2023-05-25T21:24:40.440Z,4.4
2023-05-25T21:28:40.923Z,5.12
2023-05-25T21:32:40.660Z,4.22
2023-05-25T21:36:40.443Z,4.32
2023-05-25T21:40:40.488Z,4.6
2023-05-25T21:44:40.538Z,4.43
2023-05-25T21:48:40.607Z,3.83
2023-05-25T21:52:41.096Z,4.72
2023-05-25T21:56:40.281Z,5.05
2023-05-25T22:00:40.340Z,4.97
2023-05-25T22:04:41.119Z,4.97
2023-05-25T22:08:40.422Z,5.3
2023-05-25T22:12:40.442Z,4.85
2023-05-25T22:16:40.338Z,4.32
2023-05-25T22:20:40.442Z,5.03
2023-05-25T22:24:40.593Z,4.5
2023-05-25T22:28:39.631Z,4.95
2023-05-25T22:32:40.605Z,4.95
2023-05-25T22:36:40.798Z,4.07
2023-05-25T22:40:40.690Z,5
2023-05-25T22:44:40.506Z,5.28
2023-05-25T22:48:40.760Z,5.1
2023-05-25T22:52:40.662Z,4.3
2023-05-25T22:56:40.532Z,4.8
2023-05-25T23:00:41.194Z,5.6
2023-05-25T23:04:40.766Z,4.55
2023-05-25T23:08:40.908Z,4.95
2023-05-25T23:12:40.902Z,4.9
2023-05-25T23:16:40.412Z,4.2
2023-05-25T23:20:40.856Z,5.22
2023-05-25T23:24:40.665Z,5.07
2023-05-25T23:28:40.501Z,4.85
2023-05-25T23:32:40.506Z,5.65
2023-05-25T23:36:40.287Z,4.4
2023-05-25T23:40:40.297Z,5.2
2023-05-25T23:44:40.396Z,5
2023-05-25T23:48:40.059Z,4.87
2023-05-25T23:52:41.154Z,4.85
2023-05-25T23:56:40.528Z,5.87
